Saint Helena Island, SC

3:19 PM EST on December 08, 2016 (GMT -0500)
Tarpon Blvd Ocean Front | | Change Station

Elev 35 ft 32.31 °N, 80.49 °W | Updated 1 second ago

Clear
Clear
62.3 °F
Feels Like 62.3 °F
N
6.0
Wind Variable Wind from NNW
Gusts 11.0 mph

Today
High -- | Low -- °F
--% Chance of Precip.
Yesterday
High -- | Low -- °F
Precip. -- in
Pressure 30.09 in
Visibility 7.0 miles
Clouds Clear
Dew Point 47 °F
Humidity 57%
Rainfall 0.00 in
Snow Depth Not available.
7:11 AM 5:16 PM
Waxing Gibbous, 66% visible
METAR KARW 082015Z AUTO 31010G18KT 7SM CLR 17/07 A3009 RMK AO2
Pressure 30.09 in
Visibility 7.0 miles
Clouds Clear
Dew Point 47 °F
Humidity 57%
Rainfall 0.00 in
Snow Depth Not available.
7:11 AM 5:16 PM
Waxing Gibbous, 66% visible
METAR KARW 082015Z AUTO 31010G18KT 7SM CLR 17/07 A3009 RMK AO2

10-Day Weather Forecast

Almanac

Astronomy

Dec. 08, 2016 Rise Set
Actual Time
Civil Twilight
Nautical Twilight
Astronomical Twilight
Moon
Length of Visible Light
Length of Day
Tomorrow will be .
, % of the Moon is Illuminated

Today's Extremes

State Highs State Lows

Community

WunderPhotos

Upload Photos

1,956,277 photos uploaded!

WunderBlog® & News

Nearby

Air Quality

  Air Quality AQ Index Pollutant
Not available.

Snow Depth

Station Depth Elevation

Earthquake Activity

City Distance Mag. Time & Date
Minimum magnitude displayed is 2.5.

Coastal Water Temperatures

Place Temperature

Stations

Nearby Weather Stations

Station Location Temp. Windchill Dew Point Humidity Wind Precip. Elev Updated Type
                   

Watches & Warnings

There are currently no watches in effect.